sensor_id;sensor_type;location;lat;lon;timestamp;temperature;humidity
7212;DHT22;3647;48.792;9.802;2023-02-28T05:28:52;-1.10;99.90
7212;DHT22;3647;48.792;9.802;2023-02-28T05:31:20;-0.80;99.90
7212;DHT22;3647;48.792;9.802;2023-02-28T05:33:48;-1.10;99.90
7212;DHT22;3647;48.792;9.802;2023-02-28T05:36:15;-1.20;99.90
7212;DHT22;3647;48.792;9.802;2023-02-28T05:38:42;0.40;99.90
7212;DHT22;3647;48.792;9.802;2023-02-28T05:41:10;1.80;99.90
7212;DHT22;3647;48.792;9.802;2023-02-28T05:43:37;-1.10;99.90
7212;DHT22;3647;48.792;9.802;2023-02-28T05:46:07;-1.20;99.90
7212;DHT22;3647;48.792;9.802;2023-02-28T05:48:36;-1.10;99.90
7212;DHT22;3647;48.792;9.802;2023-02-28T05:51:04;-1.10;99.90
7212;DHT22;3647;48.792;9.802;2023-02-28T05:53:32;-1.20;99.90
7212;DHT22;3647;48.792;9.802;2023-02-28T06:03:24;-1.10;99.90
7212;DHT22;3647;48.792;9.802;2023-02-28T06:05:52;-1.20;99.90
7212;DHT22;3647;48.792;9.802;2023-02-28T06:08:19;-1.20;99.90
7212;DHT22;3647;48.792;9.802;2023-02-28T13:40:27;4.90;99.90
7212;DHT22;3647;48.792;9.802;2023-02-28T13:42:54;4.50;99.90
7212;DHT22;3647;48.792;9.802;2023-02-28T13:45:26;4.60;99.90
7212;DHT22;3647;48.792;9.802;2023-02-28T13:47:59;4.70;99.90
7212;DHT22;3647;48.792;9.802;2023-02-28T13:50:32;6.20;99.90
7212;DHT22;3647;48.792;9.802;2023-02-28T13:59:17;5.10;99.90
7212;DHT22;3647;48.792;9.802;2023-02-28T14:02:03;4.90;99.90
7212;DHT22;3647;48.792;9.802;2023-02-28T14:04:56;4.80;99.90
7212;DHT22;3647;48.792;9.802;2023-02-28T14:07:28;4.90;99.90
7212;DHT22;3647;48.792;9.802;2023-02-28T14:10:00;5.00;99.90
7212;DHT22;3647;48.792;9.802;2023-02-28T14:12:54;7.20;99.90
7212;DHT22;3647;48.792;9.802;2023-02-28T14:15:47;4.90;99.90
7212;DHT22;3647;48.792;9.802;2023-02-28T14:18:22;4.80;99.90
7212;DHT22;3647;48.792;9.802;2023-02-28T14:20:53;4.90;99.90
7212;DHT22;3647;48.792;9.802;2023-02-28T14:23:40;4.70;99.90
7212;DHT22;3647;48.792;9.802;2023-02-28T14:26:16;4.70;99.90
7212;DHT22;3647;48.792;9.802;2023-02-28T14:29:01;4.90;99.90
7212;DHT22;3647;48.792;9.802;2023-02-28T14:31:37;5.70;99.90
7212;DHT22;3647;48.792;9.802;2023-02-28T14:34:21;6.70;99.90
7212;DHT22;3647;48.792;9.802;2023-02-28T14:36:53;5.70;99.90
7212;DHT22;3647;48.792;9.802;2023-02-28T14:39:22;6.00;99.90
7212;DHT22;3647;48.792;9.802;2023-02-28T14:41:50;4.80;99.90
7212;DHT22;3647;48.792;9.802;2023-02-28T14:44:20;4.80;99.90
7212;DHT22;3647;48.792;9.802;2023-02-28T14:46:49;4.80;99.90
7212;DHT22;3647;48.792;9.802;2023-02-28T14:49:24;6.90;99.90
7212;DHT22;3647;48.792;9.802;2023-02-28T14:52:03;4.70;99.90
7212;DHT22;3647;48.792;9.802;2023-02-28T14:54:32;4.70;99.90
7212;DHT22;3647;48.792;9.802;2023-02-28T14:56:59;6.80;99.90
7212;DHT22;3647;48.792;9.802;2023-02-28T14:59:29;6.70;99.90
7212;DHT22;3647;48.792;9.802;2023-02-28T15:02:16;5.20;99.90
7212;DHT22;3647;48.792;9.802;2023-02-28T15:04:52;4.80;99.90
7212;DHT22;3647;48.792;9.802;2023-02-28T15:07:19;4.80;99.90
7212;DHT22;3647;48.792;9.802;2023-02-28T15:10:07;5.00;99.90
7212;DHT22;3647;48.792;9.802;2023-02-28T15:12:35;4.90;99.90
7212;DHT22;3647;48.792;9.802;2023-02-28T15:15:04;5.30;99.90
7212;DHT22;3647;48.792;9.802;2023-02-28T15:17:32;4.70;99.90
7212;DHT22;3647;48.792;9.802;2023-02-28T15:20:00;6.10;99.90
7212;DHT22;3647;48.792;9.802;2023-02-28T15:22:31;4.60;99.90
7212;DHT22;3647;48.792;9.802;2023-02-28T15:25:02;4.60;99.90
7212;DHT22;3647;48.792;9.802;2023-02-28T15:27:32;4.70;99.90
7212;DHT22;3647;48.792;9.802;2023-02-28T15:30:04;4.70;99.90
7212;DHT22;3647;48.792;9.802;2023-02-28T15:32:32;4.70;99.90
7212;DHT22;3647;48.792;9.802;2023-02-28T15:35:18;4.80;99.90
7212;DHT22;3647;48.792;9.802;2023-02-28T15:37:47;4.80;99.90
7212;DHT22;3647;48.792;9.802;2023-02-28T15:40:23;4.80;99.90
7212;DHT22;3647;48.792;9.802;2023-02-28T15:43:04;4.80;99.90
7212;DHT22;3647;48.792;9.802;2023-02-28T15:45:43;4.70;99.90
7212;DHT22;3647;48.792;9.802;2023-02-28T15:48:16;4.60;99.90
7212;DHT22;3647;48.792;9.802;2023-02-28T15:50:44;4.50;99.90
7212;DHT22;3647;48.792;9.802;2023-02-28T15:53:16;4.40;99.90
7212;DHT22;3647;48.792;9.802;2023-02-28T15:55:44;5.50;99.90
7212;DHT22;3647;48.792;9.802;2023-02-28T15:58:12;4.40;99.90
7212;DHT22;3647;48.792;9.802;2023-02-28T16:00:43;4.40;99.90
7212;DHT22;3647;48.792;9.802;2023-02-28T16:03:33;5.40;99.90
7212;DHT22;3647;48.792;9.802;2023-02-28T16:06:26;6.20;99.90
7212;DHT22;3647;48.792;9.802;2023-02-28T16:08:55;5.60;99.90
7212;DHT22;3647;48.792;9.802;2023-02-28T16:11:22;5.20;99.90
7212;DHT22;3647;48.792;9.802;2023-02-28T16:13:50;6.30;99.90
7212;DHT22;3647;48.792;9.802;2023-02-28T16:16:20;4.10;99.90
7212;DHT22;3647;48.792;9.802;2023-02-28T16:18:47;4.10;99.90
7212;DHT22;3647;48.792;9.802;2023-02-28T16:21:14;4.10;99.90
7212;DHT22;3647;48.792;9.802;2023-02-28T16:23:41;4.00;99.90
7212;DHT22;3647;48.792;9.802;2023-02-28T16:26:08;4.80;99.90
7212;DHT22;3647;48.792;9.802;2023-02-28T16:28:39;3.90;99.90
7212;DHT22;3647;48.792;9.802;2023-02-28T16:31:07;3.90;99.90
7212;DHT22;3647;48.792;9.802;2023-02-28T16:33:35;3.80;99.90
7212;DHT22;3647;48.792;9.802;2023-02-28T16:36:02;3.80;99.90
7212;DHT22;3647;48.792;9.802;2023-02-28T16:38:29;3.80;99.90
7212;DHT22;3647;48.792;9.802;2023-02-28T16:40:59;3.70;99.90
7212;DHT22;3647;48.792;9.802;2023-02-28T16:43:26;3.70;99.90
7212;DHT22;3647;48.792;9.802;2023-02-28T16:45:55;3.70;99.90
7212;DHT22;3647;48.792;9.802;2023-02-28T16:48:22;3.60;99.90
7212;DHT22;3647;48.792;9.802;2023-02-28T16:50:50;3.60;99.90
7212;DHT22;3647;48.792;9.802;2023-02-28T16:53:17;5.00;99.90
7212;DHT22;3647;48.792;9.802;2023-02-28T16:55:44;5.10;99.90
7212;DHT22;3647;48.792;9.802;2023-02-28T16:58:15;5.60;99.90
7212;DHT22;3647;48.792;9.802;2023-02-28T17:00:42;3.40;99.90
7212;DHT22;3647;48.792;9.802;2023-02-28T17:03:20;6.00;99.90
7212;DHT22;3647;48.792;9.802;2023-02-28T17:05:50;3.30;99.90
7212;DHT22;3647;48.792;9.802;2023-02-28T17:08:17;5.00;99.90
7212;DHT22;3647;48.792;9.802;2023-02-28T17:10:44;3.20;99.90
7212;DHT22;3647;48.792;9.802;2023-02-28T17:13:11;4.80;99.90
7212;DHT22;3647;48.792;9.802;2023-02-28T17:15:38;3.10;99.90
7212;DHT22;3647;48.792;9.802;2023-02-28T17:18:06;3.00;99.90
7212;DHT22;3647;48.792;9.802;2023-02-28T17:20:36;4.50;99.90
7212;DHT22;3647;48.792;9.802;2023-02-28T17:23:04;2.90;99.90
7212;DHT22;3647;48.792;9.802;2023-02-28T17:25:31;4.80;99.90
7212;DHT22;3647;48.792;9.802;2023-02-28T17:27:57;2.90;99.90
7212;DHT22;3647;48.792;9.802;2023-02-28T17:30:27;5.20;99.90
7212;DHT22;3647;48.792;9.802;2023-02-28T17:32:54;2.90;99.90
7212;DHT22;3647;48.792;9.802;2023-02-28T17:35:21;4.60;99.90
7212;DHT22;3647;48.792;9.802;2023-02-28T17:37:47;3.10;99.90
7212;DHT22;3647;48.792;9.802;2023-02-28T17:40:18;2.70;99.90
7212;DHT22;3647;48.792;9.802;2023-02-28T17:42:45;2.70;99.90
7212;DHT22;3647;48.792;9.802;2023-02-28T17:45:12;3.20;99.90
7212;DHT22;3647;48.792;9.802;2023-02-28T17:47:48;2.60;99.90
7212;DHT22;3647;48.792;9.802;2023-02-28T17:50:17;2.60;99.90
7212;DHT22;3647;48.792;9.802;2023-02-28T17:52:43;2.50;99.90
7212;DHT22;3647;48.792;9.802;2023-02-28T17:55:10;2.50;99.90
7212;DHT22;3647;48.792;9.802;2023-02-28T17:57:39;3.10;99.90
7212;DHT22;3647;48.792;9.802;2023-02-28T18:00:10;2.40;99.90
7212;DHT22;3647;48.792;9.802;2023-02-28T18:02:38;4.70;99.90
7212;DHT22;3647;48.792;9.802;2023-02-28T18:05:05;2.40;99.90
7212;DHT22;3647;48.792;9.802;2023-02-28T18:07:32;2.30;99.90
7212;DHT22;3647;48.792;9.802;2023-02-28T18:09:59;2.30;99.90
7212;DHT22;3647;48.792;9.802;2023-02-28T18:12:26;2.30;99.90
7212;DHT22;3647;48.792;9.802;2023-02-28T18:14:54;2.30;99.90
7212;DHT22;3647;48.792;9.802;2023-02-28T18:17:21;2.00;99.90
7212;DHT22;3647;48.792;9.802;2023-02-28T18:19:48;2.20;99.90
7212;DHT22;3647;48.792;9.802;2023-02-28T18:22:15;2.20;99.90
7212;DHT22;3647;48.792;9.802;2023-02-28T18:24:42;2.30;99.90
7212;DHT22;3647;48.792;9.802;2023-02-28T18:27:09;2.10;99.90
7212;DHT22;3647;48.792;9.802;2023-02-28T18:29:37;2.10;99.90
7212;DHT22;3647;48.792;9.802;2023-02-28T18:32:05;2.10;99.90
7212;DHT22;3647;48.792;9.802;2023-02-28T18:34:32;2.00;99.90
7212;DHT22;3647;48.792;9.802;2023-02-28T18:36:59;2.00;99.90
7212;DHT22;3647;48.792;9.802;2023-02-28T18:39:26;2.10;99.90
7212;DHT22;3647;48.792;9.802;2023-02-28T18:41:52;2.10;99.90
7212;DHT22;3647;48.792;9.802;2023-02-28T18:44:20;2.00;99.90
7212;DHT22;3647;48.792;9.802;2023-02-28T18:46:47;4.00;99.90
7212;DHT22;3647;48.792;9.802;2023-02-28T18:49:15;1.90;99.90
7212;DHT22;3647;48.792;9.802;2023-02-28T18:51:42;1.80;99.90
7212;DHT22;3647;48.792;9.802;2023-02-28T18:54:09;1.70;99.90
7212;DHT22;3647;48.792;9.802;2023-02-28T18:56:36;1.70;99.90
7212;DHT22;3647;48.792;9.802;2023-02-28T18:59:03;1.60;99.90
7212;DHT22;3647;48.792;9.802;2023-02-28T19:01:32;1.60;99.90
7212;DHT22;3647;48.792;9.802;2023-02-28T19:04:00;1.60;99.90
7212;DHT22;3647;48.792;9.802;2023-02-28T19:06:30;1.50;99.90
7212;DHT22;3647;48.792;9.802;2023-02-28T19:08:58;1.60;99.90
7212;DHT22;3647;48.792;9.802;2023-02-28T19:11:26;1.50;99.90
7212;DHT22;3647;48.792;9.802;2023-02-28T19:13:53;1.40;99.90
7212;DHT22;3647;48.792;9.802;2023-02-28T19:16:20;1.40;99.90
7212;DHT22;3647;48.792;9.802;2023-02-28T19:18:48;1.40;99.90
7212;DHT22;3647;48.792;9.802;2023-02-28T19:21:16;1.40;99.90
7212;DHT22;3647;48.792;9.802;2023-02-28T19:23:45;1.40;99.90
7212;DHT22;3647;48.792;9.802;2023-02-28T19:26:13;1.30;99.90
7212;DHT22;3647;48.792;9.802;2023-02-28T19:28:40;1.40;99.90
7212;DHT22;3647;48.792;9.802;2023-02-28T19:31:11;1.30;99.90
7212;DHT22;3647;48.792;9.802;2023-02-28T19:33:38;1.30;99.90
7212;DHT22;3647;48.792;9.802;2023-02-28T19:36:05;1.90;99.90
7212;DHT22;3647;48.792;9.802;2023-02-28T19:38:32;1.30;99.90
7212;DHT22;3647;48.792;9.802;2023-02-28T19:41:01;1.30;99.90
7212;DHT22;3647;48.792;9.802;2023-02-28T19:43:28;1.30;99.90
7212;DHT22;3647;48.792;9.802;2023-02-28T19:45:55;1.30;99.90
7212;DHT22;3647;48.792;9.802;2023-02-28T19:48:22;1.30;99.90
7212;DHT22;3647;48.792;9.802;2023-02-28T19:50:54;1.20;99.90
7212;DHT22;3647;48.792;9.802;2023-02-28T19:53:21;1.20;99.90
7212;DHT22;3647;48.792;9.802;2023-02-28T19:55:49;1.20;99.90
7212;DHT22;3647;48.792;9.802;2023-02-28T19:58:17;1.10;99.90
7212;DHT22;3647;48.792;9.802;2023-02-28T20:00:44;1.10;99.90
7212;DHT22;3647;48.792;9.802;2023-02-28T20:03:11;1.10;99.90
7212;DHT22;3647;48.792;9.802;2023-02-28T20:05:38;1.00;99.90
7212;DHT22;3647;48.792;9.802;2023-02-28T20:08:05;2.30;99.90
7212;DHT22;3647;48.792;9.802;2023-02-28T20:10:32;1.00;99.90
7212;DHT22;3647;48.792;9.802;2023-02-28T20:12:59;1.00;99.90
7212;DHT22;3647;48.792;9.802;2023-02-28T20:15:27;1.10;99.90
7212;DHT22;3647;48.792;9.802;2023-02-28T20:17:54;1.10;99.90
7212;DHT22;3647;48.792;9.802;2023-02-28T20:20:25;1.00;99.90
7212;DHT22;3647;48.792;9.802;2023-02-28T20:22:52;1.00;99.90
7212;DHT22;3647;48.792;9.802;2023-02-28T20:25:19;1.00;99.90
7212;DHT22;3647;48.792;9.802;2023-02-28T20:27:46;3.00;99.90
7212;DHT22;3647;48.792;9.802;2023-02-28T20:30:13;1.30;99.90
7212;DHT22;3647;48.792;9.802;2023-02-28T20:32:41;1.00;99.90
7212;DHT22;3647;48.792;9.802;2023-02-28T20:35:09;3.70;99.90
7212;DHT22;3647;48.792;9.802;2023-02-28T20:37:36;0.80;99.90
7212;DHT22;3647;48.792;9.802;2023-02-28T20:40:03;0.80;99.90
7212;DHT22;3647;48.792;9.802;2023-02-28T20:42:30;0.80;99.90
7212;DHT22;3647;48.792;9.802;2023-02-28T20:44:57;0.80;99.90
7212;DHT22;3647;48.792;9.802;2023-02-28T20:47:24;0.80;99.90
7212;DHT22;3647;48.792;9.802;2023-02-28T20:49:52;0.70;99.90
7212;DHT22;3647;48.792;9.802;2023-02-28T20:52:19;0.70;99.90
7212;DHT22;3647;48.792;9.802;2023-02-28T20:54:45;0.60;99.90
7212;DHT22;3647;48.792;9.802;2023-02-28T20:57:12;0.60;99.90
7212;DHT22;3647;48.792;9.802;2023-02-28T20:59:39;0.60;99.90
7212;DHT22;3647;48.792;9.802;2023-02-28T21:02:06;3.10;99.90
7212;DHT22;3647;48.792;9.802;2023-02-28T21:04:33;0.60;99.90
7212;DHT22;3647;48.792;9.802;2023-02-28T21:07:01;1.80;99.90
7212;DHT22;3647;48.792;9.802;2023-02-28T21:09:29;0.60;99.90
7212;DHT22;3647;48.792;9.802;2023-02-28T21:11:55;0.50;99.90
7212;DHT22;3647;48.792;9.802;2023-02-28T21:14:22;0.50;99.90
7212;DHT22;3647;48.792;9.802;2023-02-28T21:16:49;0.50;99.90
7212;DHT22;3647;48.792;9.802;2023-02-28T21:19:16;0.40;99.90
7212;DHT22;3647;48.792;9.802;2023-02-28T21:21:43;0.40;99.90
7212;DHT22;3647;48.792;9.802;2023-02-28T21:24:16;0.30;99.90
7212;DHT22;3647;48.792;9.802;2023-02-28T21:26:44;1.70;99.90
7212;DHT22;3647;48.792;9.802;2023-02-28T21:29:12;0.30;99.90
7212;DHT22;3647;48.792;9.802;2023-02-28T21:31:39;0.40;99.90
7212;DHT22;3647;48.792;9.802;2023-02-28T21:34:07;0.40;99.90
7212;DHT22;3647;48.792;9.802;2023-02-28T21:36:36;0.40;99.90
7212;DHT22;3647;48.792;9.802;2023-02-28T21:39:07;0.30;99.90
7212;DHT22;3647;48.792;9.802;2023-02-28T21:41:35;0.30;99.90
7212;DHT22;3647;48.792;9.802;2023-02-28T21:44:03;0.20;99.90
7212;DHT22;3647;48.792;9.802;2023-02-28T21:46:30;0.20;99.90
7212;DHT22;3647;48.792;9.802;2023-02-28T21:48:57;0.00;99.90
7212;DHT22;3647;48.792;9.802;2023-02-28T21:51:25;-0.20;99.90
7212;DHT22;3647;48.792;9.802;2023-02-28T21:53:53;-0.30;99.90
7212;DHT22;3647;48.792;9.802;2023-02-28T21:56:21;-0.40;99.90
7212;DHT22;3647;48.792;9.802;2023-02-28T21:58:50;-0.50;99.90
7212;DHT22;3647;48.792;9.802;2023-02-28T22:01:25;-0.60;99.90
7212;DHT22;3647;48.792;9.802;2023-02-28T22:03:53;-0.70;99.90
7212;DHT22;3647;48.792;9.802;2023-02-28T22:06:22;-0.70;99.90
7212;DHT22;3647;48.792;9.802;2023-02-28T22:08:51;-0.90;99.90
7212;DHT22;3647;48.792;9.802;2023-02-28T22:11:20;-0.80;99.90
7212;DHT22;3647;48.792;9.802;2023-02-28T22:13:47;-0.80;99.90
7212;DHT22;3647;48.792;9.802;2023-02-28T22:16:19;-0.20;99.90
